Time;durP1;ratioP1;P1;durP2;ratioP2;P2;SDS_P1;SDS_P2;PMS_P1;PMS_P2;Temp;Humidity;BMP_temperature;BMP_pressure;BME280_temperature;BME280_humidity;BME280_pressure;Samples;Min_cycle;Max_cycle;Signal;HPM_P1;HPM_P2
2021/10/08 00:00:30;;;;;;;;;;;22.50;55.40;;;;;;495638;240;2190;-47
2021/10/08 00:02:31;;;;;;;;;;;22.60;55.40;;;;;;495273;240;1045;-47
2021/10/08 00:04:33;;;;;;;;;;;22.60;55.30;;;;;;495508;240;1192;-47
2021/10/08 00:06:34;;;;;;;;;;;22.60;55.40;;;;;;495130;240;2321;-47
2021/10/08 00:08:35;;;;;;;;;;;22.60;55.40;;;;;;495596;240;1592;-47
2021/10/08 00:10:36;;;;;;;;;;;22.60;55.40;;;;;;495428;240;1136;-47
2021/10/08 00:12:38;;;;;;;;;;;22.60;55.40;;;;;;495587;240;1207;-47
2021/10/08 00:14:39;;;;;;;;;;;22.50;55.40;;;;;;495328;240;1126;-47
2021/10/08 00:16:40;;;;;;;;;;;22.60;55.40;;;;;;495232;241;1191;-47
2021/10/08 00:18:42;;;;;;;;;;;22.60;55.40;;;;;;495235;240;1253;-47
2021/10/08 00:20:43;;;;;;;;;;;22.60;55.40;;;;;;495163;241;2186;-47
2021/10/08 00:22:44;;;;;;;;;;;22.60;55.40;;;;;;495654;240;1068;-47
2021/10/08 00:24:46;;;;;;;;;;;22.60;55.40;;;;;;495722;240;1027;-46
2021/10/08 00:26:47;;;;;;;;;;;22.60;55.40;;;;;;495413;240;1163;-46
2021/10/08 00:28:48;;;;;;;;;;;22.60;55.40;;;;;;495700;240;1090;-47
2021/10/08 00:30:50;;;;;;;;;;;22.60;55.40;;;;;;495186;241;1075;-46
2021/10/08 00:32:51;;;;;;;;;;;22.60;55.40;;;;;;495209;241;1283;-47
2021/10/08 00:34:52;;;;;;;;;;;22.50;55.40;;;;;;495557;240;1061;-47
2021/10/08 00:36:54;;;;;;;;;;;22.60;55.50;;;;;;495204;241;1334;-46
2021/10/08 00:38:55;;;;;;;;;;;22.50;55.40;;;;;;495309;240;1033;-47
2021/10/08 00:40:56;;;;;;;;;;;22.50;55.40;;;;;;495652;240;2115;-47
2021/10/08 00:42:57;;;;;;;;;;;22.50;55.30;;;;;;495185;241;1124;-47
2021/10/08 00:44:59;;;;;;;;;;;22.50;55.40;;;;;;495653;240;1052;-47
2021/10/08 00:47:00;;;;;;;;;;;22.50;55.50;;;;;;495175;241;1490;-47
2021/10/08 00:49:01;;;;;;;;;;;22.50;55.50;;;;;;495273;240;1051;-47
2021/10/08 00:51:03;;;;;;;;;;;22.50;55.40;;;;;;495073;241;1188;-47
2021/10/08 00:53:04;;;;;;;;;;;22.50;55.40;;;;;;495195;240;1009;-47
2021/10/08 00:55:05;;;;;;;;;;;22.50;55.40;;;;;;495393;240;982;-47
2021/10/08 00:57:07;;;;;;;;;;;22.50;55.40;;;;;;495214;241;1278;-47
2021/10/08 00:59:08;;;;;;;;;;;22.60;55.50;;;;;;495718;240;1065;-47
2021/10/08 01:01:09;;;;;;;;;;;22.60;55.40;;;;;;495510;240;2195;-47
2021/10/08 01:03:11;;;;;;;;;;;22.60;55.40;;;;;;495226;240;1107;-47
2021/10/08 01:05:12;;;;;;;;;;;22.60;55.40;;;;;;495226;241;1189;-47
2021/10/08 01:07:13;;;;;;;;;;;22.60;55.40;;;;;;495200;240;1234;-47
2021/10/08 01:09:15;;;;;;;;;;;22.60;55.30;;;;;;495284;241;1254;-47
2021/10/08 01:11:19;;;;;;;;;;;22.60;55.30;;;;;;495478;240;1183;-47
2021/10/08 01:13:17;;;;;;;;;;;22.60;55.40;;;;;;495263;240;2335;-47
2021/10/08 01:15:18;;;;;;;;;;;22.60;55.40;;;;;;495281;240;1258;-47
2021/10/08 01:17:20;;;;;;;;;;;22.60;55.30;;;;;;495188;241;1359;-47
2021/10/08 01:19:21;;;;;;;;;;;22.60;55.30;;;;;;495728;240;1195;-47
2021/10/08 01:21:22;;;;;;;;;;;22.60;55.30;;;;;;495171;240;2127;-47
2021/10/08 01:23:24;;;;;;;;;;;22.60;55.20;;;;;;495405;240;1602;-47
2021/10/08 01:25:25;;;;;;;;;;;22.60;55.30;;;;;;495280;241;1034;-47
2021/10/08 01:27:27;;;;;;;;;;;22.60;55.30;;;;;;495678;240;1197;-47
2021/10/08 01:29:28;;;;;;;;;;;22.60;55.30;;;;;;495300;241;1088;-47
2021/10/08 01:31:29;;;;;;;;;;;22.60;55.20;;;;;;495254;240;1704;-47
2021/10/08 01:33:31;;;;;;;;;;;22.60;55.30;;;;;;495731;240;1167;-47
2021/10/08 01:35:32;;;;;;;;;;;22.60;55.40;;;;;;495642;240;970;-47
2021/10/08 01:37:33;;;;;;;;;;;22.60;55.40;;;;;;495367;240;1184;-47
2021/10/08 01:39:35;;;;;;;;;;;22.60;55.40;;;;;;495701;240;1018;-47
2021/10/08 01:41:36;;;;;;;;;;;22.60;55.40;;;;;;495643;240;2194;-47
2021/10/08 01:43:37;;;;;;;;;;;22.60;55.40;;;;;;495354;240;1054;-47
2021/10/08 01:45:39;;;;;;;;;;;22.60;55.40;;;;;;495536;240;1152;-47
2021/10/08 01:47:40;;;;;;;;;;;22.60;55.40;;;;;;495371;240;1211;-47
2021/10/08 01:49:42;;;;;;;;;;;22.60;55.30;;;;;;495744;240;1031;-47
2021/10/08 01:51:43;;;;;;;;;;;22.60;55.30;;;;;;495216;240;1150;-47
2021/10/08 01:53:44;;;;;;;;;;;22.50;55.30;;;;;;495686;240;1056;-47
2021/10/08 01:55:45;;;;;;;;;;;22.50;55.30;;;;;;495251;240;1236;-47
2021/10/08 01:57:47;;;;;;;;;;;22.60;55.30;;;;;;495225;241;1281;-47
2021/10/08 01:59:48;;;;;;;;;;;22.50;55.30;;;;;;495276;241;1035;-47
2021/10/08 02:01:49;;;;;;;;;;;22.60;55.40;;;;;;495139;241;2115;-47
2021/10/08 02:03:51;;;;;;;;;;;22.60;55.40;;;;;;495743;240;1056;-47
2021/10/08 02:05:52;;;;;;;;;;;22.60;55.40;;;;;;495490;240;1219;-47
2021/10/08 02:07:53;;;;;;;;;;;22.60;55.40;;;;;;495268;241;1334;-47
2021/10/08 02:09:55;;;;;;;;;;;22.60;55.40;;;;;;495735;240;1087;-47
2021/10/08 02:11:56;;;;;;;;;;;22.60;55.40;;;;;;495360;240;1627;-47
2021/10/08 02:13:57;;;;;;;;;;;22.60;55.40;;;;;;495231;241;1083;-47
2021/10/08 02:15:59;;;;;;;;;;;22.60;55.40;;;;;;495663;240;1429;-47
2021/10/08 02:18:00;;;;;;;;;;;22.60;55.40;;;;;;495249;241;1165;-47
2021/10/08 02:20:03;;;;;;;;;;;22.60;55.40;;;;;;495671;240;1009;-47
2021/10/08 02:22:03;;;;;;;;;;;22.60;55.20;;;;;;495606;240;2292;-47
2021/10/08 02:24:04;;;;;;;;;;;22.60;55.30;;;;;;495754;240;1052;-47
2021/10/08 02:26:05;;;;;;;;;;;22.60;55.40;;;;;;495695;240;1181;-46
2021/10/08 02:28:07;;;;;;;;;;;22.60;55.40;;;;;;495686;240;1206;-47
2021/10/08 02:30:08;;;;;;;;;;;22.50;55.30;;;;;;495698;240;1058;-47
2021/10/08 02:32:09;;;;;;;;;;;22.60;55.40;;;;;;495287;240;1225;-47
2021/10/08 02:34:11;;;;;;;;;;;22.50;55.30;;;;;;495303;240;1069;-47
2021/10/08 02:36:12;;;;;;;;;;;22.60;55.40;;;;;;495474;240;1481;-47
2021/10/08 02:38:13;;;;;;;;;;;22.60;55.30;;;;;;495491;240;1165;-47
2021/10/08 02:40:14;;;;;;;;;;;22.60;55.30;;;;;;495470;240;1062;-47
2021/10/08 02:42:16;;;;;;;;;;;22.60;55.40;;;;;;495567;240;2111;-47
2021/10/08 02:44:17;;;;;;;;;;;22.60;55.30;;;;;;495771;240;1060;-47
2021/10/08 02:46:18;;;;;;;;;;;22.50;55.30;;;;;;495244;241;1261;-47
2021/10/08 02:48:20;;;;;;;;;;;22.50;55.30;;;;;;495712;240;1089;-47
2021/10/08 02:50:22;;;;;;;;;;;22.60;55.40;;;;;;495595;240;1101;-47
2021/10/08 02:52:22;;;;;;;;;;;22.60;55.40;;;;;;495453;240;1680;-47
2021/10/08 02:54:24;;;;;;;;;;;22.60;55.40;;;;;;495250;240;1162;-47
2021/10/08 02:56:25;;;;;;;;;;;22.60;55.30;;;;;;495187;241;1254;-47
2021/10/08 02:58:26;;;;;;;;;;;22.60;55.30;;;;;;495760;240;1045;-47
2021/10/08 03:00:28;;;;;;;;;;;22.60;55.30;;;;;;495699;240;1027;-47
2021/10/08 03:02:29;;;;;;;;;;;22.60;55.40;;;;;;495356;240;2149;-47
2021/10/08 03:04:30;;;;;;;;;;;22.60;55.30;;;;;;495688;240;1024;-47
2021/10/08 03:06:32;;;;;;;;;;;22.60;55.40;;;;;;495446;240;1390;-47
2021/10/08 03:08:33;;;;;;;;;;;22.60;55.30;;;;;;495403;240;1217;-47
2021/10/08 03:10:34;;;;;;;;;;;22.60;55.30;;;;;;495227;240;1041;-47
2021/10/08 03:12:36;;;;;;;;;;;22.60;55.30;;;;;;495242;241;1237;-47
2021/10/08 03:14:37;;;;;;;;;;;22.60;55.30;;;;;;495424;240;980;-47
2021/10/08 03:16:38;;;;;;;;;;;22.50;55.30;;;;;;495212;241;1040;-47
2021/10/08 03:18:40;;;;;;;;;;;22.50;55.40;;;;;;495741;240;966;-47
2021/10/08 03:20:41;;;;;;;;;;;22.60;55.30;;;;;;495701;240;1040;-47
2021/10/08 03:22:42;;;;;;;;;;;22.60;55.30;;;;;;495431;240;2131;-47
2021/10/08 03:24:43;;;;;;;;;;;22.60;55.30;;;;;;495247;240;1205;-47
2021/10/08 03:26:45;;;;;;;;;;;22.60;55.30;;;;;;495286;240;1080;-46
2021/10/08 03:28:46;;;;;;;;;;;22.60;55.20;;;;;;495275;241;1080;-47
2021/10/08 03:30:47;;;;;;;;;;;22.60;55.30;;;;;;495270;240;1251;-47
2021/10/08 03:32:49;;;;;;;;;;;22.60;55.30;;;;;;495242;241;1062;-47
2021/10/08 03:34:50;;;;;;;;;;;22.60;55.20;;;;;;495311;240;1078;-47
2021/10/08 03:36:53;;;;;;;;;;;22.60;55.30;;;;;;495274;241;1224;-47
2021/10/08 03:38:53;;;;;;;;;;;22.60;55.30;;;;;;495208;240;2024;-47
2021/10/08 03:41:05;;;;;;;;;;;22.60;55.30;;;;;;495167;241;1097;-47
2021/10/08 03:42:59;;;;;;;;;;;22.60;55.20;;;;;;494627;240;2270;-47
2021/10/08 03:45:04;;;;;;;;;;;22.60;55.30;;;;;;495116;240;2285;-47
2021/10/08 03:46:59;;;;;;;;;;;22.60;55.30;;;;;;494961;240;1995;-47
2021/10/08 03:49:13;;;;;;;;;;;22.60;55.30;;;;;;495454;240;1152;-47
2021/10/08 03:51:14;;;;;;;;;;;22.60;55.20;;;;;;495387;240;1174;-47
2021/10/08 03:53:16;;;;;;;;;;;22.60;55.20;;;;;;495311;241;1130;-47
2021/10/08 03:55:17;;;;;;;;;;;22.60;55.30;;;;;;495517;240;1080;-47
2021/10/08 03:57:18;;;;;;;;;;;22.60;55.30;;;;;;495287;240;1271;-47
2021/10/08 03:59:20;;;;;;;;;;;22.60;55.20;;;;;;495531;240;1056;-47
2021/10/08 04:01:21;;;;;;;;;;;22.60;55.30;;;;;;495629;240;1240;-47
2021/10/08 04:03:22;;;;;;;;;;;22.60;55.30;;;;;;495485;240;2177;-47
2021/10/08 04:05:24;;;;;;;;;;;22.60;55.30;;;;;;495405;240;1006;-47
2021/10/08 04:07:25;;;;;;;;;;;22.60;55.20;;;;;;495242;241;1190;-47
2021/10/08 04:09:26;;;;;;;;;;;22.60;55.30;;;;;;495278;240;1198;-47
2021/10/08 04:11:28;;;;;;;;;;;22.60;55.40;;;;;;495342;240;1201;-46
2021/10/08 04:13:29;;;;;;;;;;;22.50;55.30;;;;;;495263;241;1153;-47
2021/10/08 04:15:31;;;;;;;;;;;22.60;55.40;;;;;;495238;241;1461;-46
2021/10/08 04:17:32;;;;;;;;;;;22.60;55.30;;;;;;495522;240;1296;-46
2021/10/08 04:19:33;;;;;;;;;;;22.60;55.30;;;;;;495215;241;1031;-47
2021/10/08 04:21:35;;;;;;;;;;;22.60;55.40;;;;;;495219;240;1176;-47
2021/10/08 04:23:36;;;;;;;;;;;22.60;55.30;;;;;;495481;240;2183;-47
2021/10/08 04:25:37;;;;;;;;;;;22.60;55.20;;;;;;495570;240;1424;-47
2021/10/08 04:27:39;;;;;;;;;;;22.60;55.20;;;;;;495341;240;1082;-47
2021/10/08 04:29:40;;;;;;;;;;;22.60;55.30;;;;;;495329;240;1077;-47
2021/10/08 04:31:41;;;;;;;;;;;22.60;55.30;;;;;;495549;240;1289;-47
2021/10/08 04:33:42;;;;;;;;;;;22.60;55.30;;;;;;495246;240;1027;-47
2021/10/08 04:35:44;;;;;;;;;;;22.60;55.40;;;;;;495149;241;1225;-47
2021/10/08 04:37:45;;;;;;;;;;;22.60;55.30;;;;;;495427;240;1198;-47
2021/10/08 04:39:46;;;;;;;;;;;22.60;55.30;;;;;;495413;240;1184;-47
2021/10/08 04:41:48;;;;;;;;;;;22.60;55.30;;;;;;495416;240;1568;-46
2021/10/08 04:43:49;;;;;;;;;;;22.60;55.30;;;;;;495434;240;2182;-46
2021/10/08 04:45:50;;;;;;;;;;;22.60;55.30;;;;;;495344;240;1327;-47
2021/10/08 04:47:52;;;;;;;;;;;22.60;55.30;;;;;;495159;240;1278;-47
2021/10/08 04:49:53;;;;;;;;;;;22.60;55.30;;;;;;495433;240;1066;-47
2021/10/08 04:51:54;;;;;;;;;;;22.60;55.20;;;;;;494964;240;1439;-47
2021/10/08 04:53:56;;;;;;;;;;;22.60;55.30;;;;;;495117;240;1132;-46
2021/10/08 04:55:57;;;;;;;;;;;22.60;55.20;;;;;;495169;240;1346;-47
2021/10/08 04:57:58;;;;;;;;;;;22.60;55.30;;;;;;494999;241;1092;-47
2021/10/08 05:00:00;;;;;;;;;;;22.60;55.30;;;;;;495124;240;1058;-47
2021/10/08 05:02:01;;;;;;;;;;;22.60;55.20;;;;;;495060;240;1206;-47
2021/10/08 05:04:02;;;;;;;;;;;22.60;55.20;;;;;;495229;240;2115;-47
2021/10/08 05:06:04;;;;;;;;;;;22.60;55.20;;;;;;495072;241;1355;-47
2021/10/08 05:08:05;;;;;;;;;;;22.60;55.10;;;;;;494999;241;1028;-47
2021/10/08 05:10:06;;;;;;;;;;;22.60;55.20;;;;;;494915;241;1191;-47
2021/10/08 05:12:07;;;;;;;;;;;22.60;55.20;;;;;;495010;240;1269;-46
2021/10/08 05:14:10;;;;;;;;;;;22.60;55.20;;;;;;495034;241;1105;-47
2021/10/08 05:16:10;;;;;;;;;;;22.60;55.10;;;;;;494932;240;2148;-47
2021/10/08 05:18:12;;;;;;;;;;;22.60;55.20;;;;;;495031;240;1246;-47
2021/10/08 05:20:13;;;;;;;;;;;22.60;55.20;;;;;;495227;240;1052;-47
2021/10/08 05:22:14;;;;;;;;;;;22.60;55.20;;;;;;494859;241;1610;-47
2021/10/08 05:24:16;;;;;;;;;;;22.60;55.20;;;;;;495146;240;2175;-46
2021/10/08 05:26:17;;;;;;;;;;;22.60;55.30;;;;;;495158;240;1603;-47
2021/10/08 05:28:19;;;;;;;;;;;22.60;55.20;;;;;;495425;240;1173;-47
2021/10/08 05:30:20;;;;;;;;;;;22.60;55.20;;;;;;494897;241;1122;-47
2021/10/08 05:32:21;;;;;;;;;;;22.60;55.20;;;;;;494981;240;1339;-47
2021/10/08 05:34:23;;;;;;;;;;;22.60;55.20;;;;;;495101;240;1058;-47
2021/10/08 05:36:24;;;;;;;;;;;22.60;55.20;;;;;;494950;240;1189;-47
2021/10/08 05:38:25;;;;;;;;;;;22.50;55.30;;;;;;495107;240;1309;-47
2021/10/08 05:40:26;;;;;;;;;;;22.60;55.40;;;;;;494835;240;1153;-47
2021/10/08 05:42:28;;;;;;;;;;;22.60;55.30;;;;;;494844;240;1126;-47
2021/10/08 05:44:29;;;;;;;;;;;22.50;55.30;;;;;;494932;240;1017;-47
2021/10/08 05:46:30;;;;;;;;;;;22.60;55.40;;;;;;495163;240;1142;-47
2021/10/08 05:48:32;;;;;;;;;;;22.60;55.30;;;;;;495067;240;1078;-47
2021/10/08 05:50:33;;;;;;;;;;;22.60;55.40;;;;;;494783;241;1193;-46
2021/10/08 05:52:34;;;;;;;;;;;22.50;55.40;;;;;;494907;240;1239;-47
2021/10/08 05:54:36;;;;;;;;;;;22.50;55.40;;;;;;494933;241;1119;-46
2021/10/08 05:56:37;;;;;;;;;;;22.50;55.40;;;;;;494838;240;1149;-47
2021/10/08 05:58:39;;;;;;;;;;;22.60;55.50;;;;;;494868;241;1078;-47
2021/10/08 06:00:40;;;;;;;;;;;22.50;55.40;;;;;;494776;241;1337;-46
2021/10/08 06:02:41;;;;;;;;;;;22.60;55.40;;;;;;494939;240;2185;-46
2021/10/08 06:04:43;;;;;;;;;;;22.50;55.40;;;;;;494798;241;1146;-47
2021/10/08 06:06:45;;;;;;;;;;;22.60;55.40;;;;;;494808;240;1322;-46
2021/10/08 06:08:45;;;;;;;;;;;22.50;55.30;;;;;;494671;240;2512;-47
2021/10/08 06:10:47;;;;;;;;;;;22.50;55.30;;;;;;494797;240;1333;-46
2021/10/08 06:12:48;;;;;;;;;;;22.60;55.40;;;;;;494825;240;1275;-47
2021/10/08 06:14:49;;;;;;;;;;;22.50;55.40;;;;;;494737;241;1069;-47
2021/10/08 06:16:51;;;;;;;;;;;22.50;55.40;;;;;;494739;240;1291;-47
2021/10/08 06:18:52;;;;;;;;;;;22.50;55.40;;;;;;494844;240;1182;-46
2021/10/08 06:20:53;;;;;;;;;;;22.60;55.40;;;;;;494641;240;1496;-47
2021/10/08 06:22:55;;;;;;;;;;;22.50;55.30;;;;;;494691;240;2194;-47
2021/10/08 06:24:56;;;;;;;;;;;22.60;55.40;;;;;;494735;241;1164;-47
2021/10/08 06:26:58;;;;;;;;;;;22.60;55.30;;;;;;494669;241;1301;-47
2021/10/08 06:28:59;;;;;;;;;;;22.50;55.40;;;;;;494768;240;1096;-47
2021/10/08 06:31:00;;;;;;;;;;;22.50;55.40;;;;;;494630;240;1494;-47
2021/10/08 06:33:02;;;;;;;;;;;22.50;55.50;;;;;;494731;241;1170;-47
2021/10/08 06:35:03;;;;;;;;;;;22.50;55.50;;;;;;494733;240;1102;-47
2021/10/08 06:37:04;;;;;;;;;;;22.50;55.50;;;;;;494734;240;1219;-47
2021/10/08 06:39:05;;;;;;;;;;;22.50;55.50;;;;;;494707;241;1055;-46
2021/10/08 06:41:07;;;;;;;;;;;22.40;55.50;;;;;;494604;241;1648;-47
2021/10/08 06:43:08;;;;;;;;;;;22.50;55.60;;;;;;494618;240;2178;-47
2021/10/08 06:45:09;;;;;;;;;;;22.50;55.50;;;;;;494587;240;1036;-46
2021/10/08 06:47:11;;;;;;;;;;;22.50;55.50;;;;;;494511;240;1228;-47
2021/10/08 06:49:12;;;;;;;;;;;22.50;55.50;;;;;;494844;240;1056;-46
2021/10/08 06:51:13;;;;;;;;;;;22.50;55.50;;;;;;494581;237;1213;-47
2021/10/08 06:53:15;;;;;;;;;;;22.50;55.60;;;;;;494706;240;1069;-47
2021/10/08 06:55:16;;;;;;;;;;;22.50;55.60;;;;;;494786;240;1129;-47
2021/10/08 06:57:17;;;;;;;;;;;22.50;55.60;;;;;;494532;241;1335;-47
2021/10/08 06:59:19;;;;;;;;;;;22.50;55.70;;;;;;494718;240;1065;-47
2021/10/08 07:01:20;;;;;;;;;;;22.50;55.60;;;;;;494520;241;1287;-47
2021/10/08 07:03:21;;;;;;;;;;;22.50;55.60;;;;;;494668;240;2178;-47
2021/10/08 07:05:23;;;;;;;;;;;22.50;55.60;;;;;;494573;240;1385;-47
2021/10/08 07:07:26;;;;;;;;;;;22.50;55.60;;;;;;494436;241;1170;-47
2021/10/08 07:09:25;;;;;;;;;;;22.50;55.60;;;;;;494464;240;2193;-47
2021/10/08 07:11:27;;;;;;;;;;;22.50;55.60;;;;;;494566;240;1520;-47
2021/10/08 07:13:28;;;;;;;;;;;22.50;55.50;;;;;;494508;240;1279;-47
2021/10/08 07:15:29;;;;;;;;;;;22.50;55.50;;;;;;494557;241;1130;-46
2021/10/08 07:17:31;;;;;;;;;;;22.50;55.50;;;;;;494625;241;1175;-47
2021/10/08 07:19:32;;;;;;;;;;;22.50;55.50;;;;;;494514;241;1064;-47
2021/10/08 07:21:34;;;;;;;;;;;22.50;55.40;;;;;;494491;240;1377;-47
2021/10/08 07:23:37;;;;;;;;;;;22.50;55.40;;;;;;494498;240;2119;-47
2021/10/08 07:25:36;;;;;;;;;;;22.50;55.40;;;;;;494440;240;2190;-47
2021/10/08 07:27:37;;;;;;;;;;;22.50;55.40;;;;;;494678;240;1332;-47
2021/10/08 07:29:39;;;;;;;;;;;22.60;55.40;;;;;;494521;240;1080;-47
2021/10/08 07:31:40;;;;;;;;;;;22.50;55.30;;;;;;494345;240;1151;-47
2021/10/08 07:33:41;;;;;;;;;;;22.60;55.30;;;;;;494520;241;1118;-47
2021/10/08 07:35:43;;;;;;;;;;;22.60;55.30;;;;;;494542;240;1405;-47
2021/10/08 07:37:44;;;;;;;;;;;22.60;55.30;;;;;;494901;240;1004;-47
2021/10/08 07:39:45;;;;;;;;;;;22.60;55.30;;;;;;494466;241;1068;-46
2021/10/08 07:41:47;;;;;;;;;;;22.60;55.30;;;;;;494440;240;1329;-47
2021/10/08 07:43:48;;;;;;;;;;;22.60;55.30;;;;;;494737;240;2181;-47
2021/10/08 07:45:49;;;;;;;;;;;22.60;55.20;;;;;;494427;240;1416;-47
2021/10/08 07:47:51;;;;;;;;;;;22.60;55.20;;;;;;494496;240;1243;-47
2021/10/08 07:49:52;;;;;;;;;;;22.60;55.10;;;;;;494519;240;1066;-47
2021/10/08 07:51:53;;;;;;;;;;;22.60;55.20;;;;;;494679;240;1218;-47
2021/10/08 07:53:55;;;;;;;;;;;22.60;55.20;;;;;;494324;241;1290;-47
2021/10/08 07:55:56;;;;;;;;;;;22.60;55.20;;;;;;494364;240;1197;-47
2021/10/08 07:57:58;;;;;;;;;;;22.60;55.00;;;;;;494354;241;1357;-47
2021/10/08 07:59:59;;;;;;;;;;;22.70;55.10;;;;;;494468;240;1092;-47
2021/10/08 08:02:00;;;;;;;;;;;22.60;55.10;;;;;;494556;240;1240;-47
2021/10/08 08:04:02;;;;;;;;;;;22.60;55.10;;;;;;494659;240;2182;-47
2021/10/08 08:06:03;;;;;;;;;;;22.70;55.20;;;;;;494438;240;1147;-47
2021/10/08 08:08:04;;;;;;;;;;;22.70;55.10;;;;;;494481;240;1133;-47
2021/10/08 08:10:05;;;;;;;;;;;22.70;55.10;;;;;;494427;240;1077;-47
2021/10/08 08:12:08;;;;;;;;;;;22.60;55.10;;;;;;494474;240;1360;-47
2021/10/08 08:14:08;;;;;;;;;;;22.70;55.10;;;;;;494497;240;2192;-47
2021/10/08 08:16:09;;;;;;;;;;;22.70;55.00;;;;;;494427;241;1049;-47
2021/10/08 08:18:11;;;;;;;;;;;22.70;55.00;;;;;;494428;241;1212;-47
2021/10/08 08:20:12;;;;;;;;;;;22.60;55.00;;;;;;494310;240;1140;-46
2021/10/08 08:22:13;;;;;;;;;;;22.70;55.10;;;;;;494319;240;1433;-47
2021/10/08 08:24:15;;;;;;;;;;;22.70;55.00;;;;;;494209;241;2193;-47
2021/10/08 08:26:16;;;;;;;;;;;22.70;55.00;;;;;;494141;241;1216;-46
2021/10/08 08:28:17;;;;;;;;;;;22.70;55.00;;;;;;494396;240;1103;-47
2021/10/08 08:30:19;;;;;;;;;;;22.70;55.00;;;;;;494576;240;1348;-47
2021/10/08 08:32:20;;;;;;;;;;;22.60;55.00;;;;;;494550;240;1362;-47
2021/10/08 08:34:23;;;;;;;;;;;22.70;55.00;;;;;;494495;240;1058;-47
2021/10/08 08:36:23;;;;;;;;;;;22.70;54.90;;;;;;494324;241;1363;-47
2021/10/08 08:38:25;;;;;;;;;;;22.70;55.00;;;;;;494424;241;1204;-47
2021/10/08 08:40:28;;;;;;;;;;;22.70;55.00;;;;;;494532;240;1058;-47
2021/10/08 08:42:27;;;;;;;;;;;22.70;55.00;;;;;;494273;240;2055;-47
2021/10/08 08:44:29;;;;;;;;;;;22.70;55.10;;;;;;494401;240;2175;-47
2021/10/08 08:46:30;;;;;;;;;;;22.70;55.00;;;;;;494360;240;1156;-47
2021/10/08 08:48:31;;;;;;;;;;;22.70;55.00;;;;;;494346;240;1204;-47
2021/10/08 08:50:33;;;;;;;;;;;22.70;54.80;;;;;;494150;241;1326;-47
2021/10/08 08:52:34;;;;;;;;;;;22.70;54.90;;;;;;494051;240;1224;-47
2021/10/08 08:54:36;;;;;;;;;;;22.70;54.80;;;;;;494193;241;1067;-47
2021/10/08 08:56:37;;;;;;;;;;;22.70;54.90;;;;;;494325;240;1189;-47
2021/10/08 08:58:38;;;;;;;;;;;22.70;54.90;;;;;;494441;240;1033;-47
2021/10/08 09:00:40;;;;;;;;;;;22.70;55.00;;;;;;494335;241;1117;-47
2021/10/08 09:02:41;;;;;;;;;;;22.70;55.00;;;;;;494272;241;1291;-47
2021/10/08 09:04:43;;;;;;;;;;;22.70;55.00;;;;;;494255;241;2190;-47
2021/10/08 09:06:44;;;;;;;;;;;22.70;55.00;;;;;;494130;241;1410;-47
2021/10/08 09:08:46;;;;;;;;;;;22.60;55.00;;;;;;494213;241;1152;-47
2021/10/08 09:10:47;;;;;;;;;;;22.70;55.00;;;;;;494279;240;1208;-47
2021/10/08 09:12:48;;;;;;;;;;;22.70;54.90;;;;;;494399;240;1230;-47
2021/10/08 09:14:50;;;;;;;;;;;22.70;54.90;;;;;;494411;241;1118;-47
2021/10/08 09:16:51;;;;;;;;;;;22.70;54.90;;;;;;494585;240;1279;-46
2021/10/08 09:18:52;;;;;;;;;;;22.70;54.80;;;;;;494911;240;1348;-47
2021/10/08 09:20:53;;;;;;;;;;;22.80;54.90;;;;;;494865;240;1403;-47
2021/10/08 09:22:55;;;;;;;;;;;22.70;54.90;;;;;;494961;240;1160;-47
2021/10/08 09:24:56;;;;;;;;;;;22.70;54.90;;;;;;494454;240;2131;-47
2021/10/08 09:26:57;;;;;;;;;;;22.70;54.90;;;;;;494341;241;1196;-46
2021/10/08 09:28:59;;;;;;;;;;;22.70;55.00;;;;;;494245;240;1088;-47
2021/10/08 09:31:00;;;;;;;;;;;22.70;55.00;;;;;;494035;240;1146;-47
2021/10/08 09:33:02;;;;;;;;;;;22.70;55.10;;;;;;494155;240;1151;-47
2021/10/08 09:35:03;;;;;;;;;;;22.70;55.20;;;;;;494218;241;1072;-47
2021/10/08 09:37:06;;;;;;;;;;;22.60;55.10;;;;;;494209;240;1213;-47
2021/10/08 09:39:06;;;;;;;;;;;22.70;55.10;;;;;;494292;240;2445;-47
2021/10/08 09:41:07;;;;;;;;;;;22.60;55.10;;;;;;494219;240;2335;-47
2021/10/08 09:43:08;;;;;;;;;;;22.70;55.20;;;;;;494428;240;1209;-47
2021/10/08 09:45:10;;;;;;;;;;;22.70;55.20;;;;;;494258;241;2185;-47
2021/10/08 09:47:11;;;;;;;;;;;22.60;55.30;;;;;;494198;241;1220;-47
2021/10/08 09:49:12;;;;;;;;;;;22.60;55.40;;;;;;494595;240;1153;-47
2021/10/08 09:51:14;;;;;;;;;;;22.60;55.30;;;;;;494465;236;1078;-47
2021/10/08 09:53:15;;;;;;;;;;;22.60;55.20;;;;;;494469;240;1085;-47
2021/10/08 09:55:17;;;;;;;;;;;22.60;55.20;;;;;;494325;241;1072;-47
2021/10/08 09:57:21;;;;;;;;;;;22.60;55.30;;;;;;494271;240;1233;-47
2021/10/08 09:59:21;;;;;;;;;;;22.50;55.40;;;;;;494395;240;1713;-47
2021/10/08 10:01:21;;;;;;;;;;;22.60;55.40;;;;;;494529;240;2122;-48
2021/10/08 10:03:23;;;;;;;;;;;22.60;55.20;;;;;;494424;241;1208;-46
2021/10/08 10:05:24;;;;;;;;;;;22.60;55.10;;;;;;494328;241;2182;-46
2021/10/08 10:07:26;;;;;;;;;;;22.60;55.10;;;;;;494254;240;1330;-47
2021/10/08 10:09:26;;;;;;;;;;;22.70;55.10;;;;;;494431;241;2248;-47
2021/10/08 10:11:28;;;;;;;;;;;22.70;55.10;;;;;;494376;241;1184;-47
2021/10/08 10:13:29;;;;;;;;;;;22.70;54.90;;;;;;494542;240;1137;-47
2021/10/08 10:15:30;;;;;;;;;;;22.70;54.90;;;;;;494573;240;1271;-47
2021/10/08 10:17:32;;;;;;;;;;;22.80;54.80;;;;;;494500;241;1382;-47
2021/10/08 10:19:33;;;;;;;;;;;22.80;54.80;;;;;;494579;240;1194;-47
2021/10/08 10:21:36;;;;;;;;;;;22.80;54.80;;;;;;494538;241;1194;-47
2021/10/08 10:23:36;;;;;;;;;;;22.80;54.70;;;;;;494399;240;2171;-47
2021/10/08 10:25:37;;;;;;;;;;;22.80;54.70;;;;;;494496;241;2247;-47
2021/10/08 10:27:38;;;;;;;;;;;22.80;54.70;;;;;;494478;241;1296;-47
2021/10/08 10:29:40;;;;;;;;;;;22.80;54.70;;;;;;494368;241;1065;-47
2021/10/08 10:31:41;;;;;;;;;;;22.80;54.60;;;;;;494339;240;1215;-47
2021/10/08 10:33:42;;;;;;;;;;;22.80;54.70;;;;;;494567;241;1063;-47
2021/10/08 10:35:44;;;;;;;;;;;22.80;54.70;;;;;;494535;240;1472;-47
2021/10/08 10:37:46;;;;;;;;;;;22.90;54.60;;;;;;494692;240;1286;-47
2021/10/08 10:39:47;;;;;;;;;;;22.90;54.50;;;;;;494340;240;1140;-47
2021/10/08 10:41:48;;;;;;;;;;;22.90;54.50;;;;;;494253;241;1290;-47
2021/10/08 10:43:51;;;;;;;;;;;22.80;54.50;;;;;;494562;241;1349;-47
2021/10/08 10:45:51;;;;;;;;;;;22.90;54.50;;;;;;494461;240;2178;-47
2021/10/08 10:47:52;;;;;;;;;;;22.90;54.40;;;;;;494574;240;1093;-47
2021/10/08 10:49:55;;;;;;;;;;;22.90;54.40;;;;;;494349;241;1069;-47
2021/10/08 10:51:55;;;;;;;;;;;22.90;54.50;;;;;;494217;241;2119;-46
2021/10/08 10:53:57;;;;;;;;;;;22.90;54.50;;;;;;494448;240;1073;-47
2021/10/08 10:55:58;;;;;;;;;;;22.90;54.50;;;;;;494399;240;1536;-47
2021/10/08 10:57:59;;;;;;;;;;;22.90;54.50;;;;;;494317;240;1474;-47
2021/10/08 11:00:01;;;;;;;;;;;22.90;54.60;;;;;;494418;241;1071;-47
2021/10/08 11:02:02;;;;;;;;;;;22.90;54.50;;;;;;494468;240;1100;-47
2021/10/08 11:04:03;;;;;;;;;;;22.90;54.50;;;;;;494439;240;1104;-47
2021/10/08 11:06:04;;;;;;;;;;;22.90;54.40;;;;;;494249;241;2190;-47
2021/10/08 11:08:06;;;;;;;;;;;22.90;54.40;;;;;;494405;240;1033;-47
2021/10/08 11:10:07;;;;;;;;;;;23.00;54.40;;;;;;494467;240;1063;-47
2021/10/08 11:12:08;;;;;;;;;;;22.90;54.40;;;;;;494473;241;1221;-47
2021/10/08 11:14:10;;;;;;;;;;;22.90;54.40;;;;;;494364;240;1185;-47
2021/10/08 11:16:11;;;;;;;;;;;22.90;54.40;;;;;;494326;240;1322;-46
2021/10/08 11:18:13;;;;;;;;;;;22.90;54.40;;;;;;494356;241;1079;-47
2021/10/08 11:20:14;;;;;;;;;;;22.90;54.40;;;;;;494434;240;1080;-47
2021/10/08 11:22:15;;;;;;;;;;;22.90;54.40;;;;;;494350;241;1218;-47
2021/10/08 11:24:17;;;;;;;;;;;22.90;54.40;;;;;;494356;240;1048;-47
2021/10/08 11:26:18;;;;;;;;;;;23.00;54.40;;;;;;494312;240;2171;-47
2021/10/08 11:28:19;;;;;;;;;;;23.00;54.40;;;;;;494457;240;1082;-47
2021/10/08 11:30:21;;;;;;;;;;;23.00;54.30;;;;;;494482;241;1200;-47
2021/10/08 11:32:22;;;;;;;;;;;23.00;54.20;;;;;;494440;240;1604;-47
2021/10/08 11:34:23;;;;;;;;;;;23.00;54.20;;;;;;494546;240;1153;-47
2021/10/08 11:36:25;;;;;;;;;;;23.00;54.20;;;;;;494401;240;1136;-47
2021/10/08 11:38:26;;;;;;;;;;;23.00;54.20;;;;;;494600;241;1059;-47
2021/10/08 11:40:28;;;;;;;;;;;23.10;54.20;;;;;;494535;241;1090;-47
2021/10/08 11:42:29;;;;;;;;;;;23.00;54.20;;;;;;494514;238;1046;-47
2021/10/08 11:44:33;;;;;;;;;;;23.00;54.20;;;;;;494377;240;1150;-47
2021/10/08 11:46:53;;;;;;;;;;;23.00;54.10;;;;;;494072;240;2425;-47
2021/10/08 11:48:55;;;;;;;;;;;23.10;54.10;;;;;;494205;240;2254;-47
2021/10/08 11:51:02;;;;;;;;;;;23.00;54.10;;;;;;494197;240;2122;-46
2021/10/08 11:52:58;;;;;;;;;;;23.10;54.10;;;;;;494277;240;2476;-46
2021/10/08 11:55:00;;;;;;;;;;;23.10;54.10;;;;;;494759;240;950;-47
2021/10/08 11:57:01;;;;;;;;;;;23.10;54.00;;;;;;494563;240;1212;-46